createdAt,value
2019-05-30T00:07:37.854Z,12.85
2019-05-30T00:22:47.542Z,12.92
2019-05-30T00:37:57.715Z,12.39
2019-05-30T00:53:08.626Z,12.34
2019-05-30T01:08:19.277Z,12.48
2019-05-30T01:23:29.418Z,12.45
2019-05-30T01:38:41.043Z,12.22
2019-05-30T01:53:52.062Z,11.89
2019-05-30T02:09:01.174Z,11.97
2019-05-30T02:24:13.424Z,11.93
2019-05-30T02:39:24.964Z,12.06
2019-05-30T02:54:34.671Z,12.21
2019-05-30T03:09:44.559Z,12.06
2019-05-30T03:24:53.579Z,11.95
2019-05-30T03:40:03.723Z,11.96
2019-05-30T03:55:15.031Z,11.74
2019-05-30T04:10:30.173Z,11.70
2019-05-30T04:25:40.778Z,11.70
2019-05-30T04:40:49.824Z,11.82
2019-05-30T04:56:01.474Z,11.83
2019-05-30T05:11:27.892Z,12.00
2019-05-30T05:26:36.996Z,11.62
2019-05-30T05:41:45.845Z,11.51
2019-05-30T05:56:56.997Z,11.45
2019-05-30T06:12:09.500Z,11.39
2019-05-30T06:27:18.453Z,11.56
2019-05-30T06:42:28.306Z,11.43
2019-05-30T06:57:38.868Z,11.36
2019-05-30T07:12:48.480Z,11.41
2019-05-30T07:27:58.088Z,11.15
2019-05-30T07:43:12.677Z,11.55
2019-05-30T07:58:23.620Z,11.40
2019-05-30T08:13:33.834Z,11.63
2019-05-30T08:28:42.776Z,11.46
2019-05-30T08:43:54.075Z,11.49
2019-05-30T08:59:03.665Z,11.82
2019-05-30T10:02:05.108Z,12.26
2019-05-30T10:17:15.751Z,12.25
2019-05-30T10:32:25.928Z,12.25
2019-05-30T10:47:36.131Z,12.72
2019-05-30T13:10:05.151Z,12.05
2019-05-30T13:25:36.071Z,12.25
2019-05-30T15:15:57.220Z,11.64
2019-05-30T15:47:47.046Z,11.37
2019-05-30T16:34:52.678Z,11.39
2019-05-30T18:23:18.296Z,11.41
2019-05-30T18:53:56.268Z,11.13
2019-05-30T19:09:08.660Z,11.02
2019-05-30T19:24:36.607Z,11.04
2019-05-30T19:39:46.231Z,10.97
2019-05-30T19:54:57.851Z,11.06
2019-05-30T20:10:10.397Z,10.97
2019-05-30T20:25:24.431Z,11.08
2019-05-30T20:40:34.961Z,11.05
2019-05-30T20:55:46.768Z,11.10
2019-05-30T21:10:59.447Z,10.98
2019-05-30T21:26:25.835Z,11.03
2019-05-30T21:41:35.532Z,11.01
2019-05-30T22:14:15.694Z,11.14
2019-05-30T22:29:24.474Z,10.98
2019-05-30T22:44:52.574Z,11.06
2019-05-30T23:00:00.442Z,11.13
2019-05-30T23:15:10.010Z,11.06
2019-05-30T23:30:21.363Z,11.18
2019-05-30T23:45:31.105Z,11.27
